sensor_id;sensor_type;location;lat;lon;timestamp;temperature;humidity
8988;DHT22;4529;51.360;12.474;2022-09-02T00:00:31;13.30;99.90
8988;DHT22;4529;51.360;12.474;2022-09-02T00:05:35;13.40;99.90
8988;DHT22;4529;51.360;12.474;2022-09-02T00:10:41;13.30;99.90
8988;DHT22;4529;51.360;12.474;2022-09-02T00:15:44;13.20;99.90
8988;DHT22;4529;51.360;12.474;2022-09-02T00:20:47;13.20;99.90
8988;DHT22;4529;51.360;12.474;2022-09-02T00:25:51;13.10;99.90
8988;DHT22;4529;51.360;12.474;2022-09-02T00:30:56;13.10;99.90
8988;DHT22;4529;51.360;12.474;2022-09-02T00:36:00;13.00;99.90
8988;DHT22;4529;51.360;12.474;2022-09-02T00:41:04;12.90;99.90
8988;DHT22;4529;51.360;12.474;2022-09-02T00:46:08;12.80;99.90
8988;DHT22;4529;51.360;12.474;2022-09-02T00:51:12;12.80;99.90
8988;DHT22;4529;51.360;12.474;2022-09-02T00:56:20;12.70;99.90
8988;DHT22;4529;51.360;12.474;2022-09-02T01:01:22;12.70;99.90
8988;DHT22;4529;51.360;12.474;2022-09-02T01:06:26;12.70;99.90
8988;DHT22;4529;51.360;12.474;2022-09-02T01:11:34;12.60;99.90
8988;DHT22;4529;51.360;12.474;2022-09-02T01:16:36;12.50;99.90
8988;DHT22;4529;51.360;12.474;2022-09-02T01:21:36;12.50;99.90
8988;DHT22;4529;51.360;12.474;2022-09-02T01:26:40;12.40;99.90
8988;DHT22;4529;51.360;12.474;2022-09-02T01:31:43;12.40;99.90
8988;DHT22;4529;51.360;12.474;2022-09-02T01:36:47;12.30;99.90
8988;DHT22;4529;51.360;12.474;2022-09-02T01:47:49;12.30;99.90
8988;DHT22;4529;51.360;12.474;2022-09-02T01:52:52;12.30;99.90
8988;DHT22;4529;51.360;12.474;2022-09-02T01:57:56;12.20;99.90
8988;DHT22;4529;51.360;12.474;2022-09-02T02:02:59;12.10;99.90
8988;DHT22;4529;51.360;12.474;2022-09-02T02:08:03;12.10;99.90
8988;DHT22;4529;51.360;12.474;2022-09-02T02:13:06;12.10;99.90
8988;DHT22;4529;51.360;12.474;2022-09-02T02:18:10;12.00;99.90
8988;DHT22;4529;51.360;12.474;2022-09-02T02:23:19;11.90;99.90
8988;DHT22;4529;51.360;12.474;2022-09-02T02:28:23;12.00;99.90
8988;DHT22;4529;51.360;12.474;2022-09-02T02:33:26;12.00;99.90
8988;DHT22;4529;51.360;12.474;2022-09-02T02:38:30;12.00;99.90
8988;DHT22;4529;51.360;12.474;2022-09-02T02:43:34;12.00;99.90
8988;DHT22;4529;51.360;12.474;2022-09-02T02:48:37;11.90;99.90
8988;DHT22;4529;51.360;12.474;2022-09-02T02:53:40;11.80;99.90
8988;DHT22;4529;51.360;12.474;2022-09-02T02:58:44;11.80;99.90
8988;DHT22;4529;51.360;12.474;2022-09-02T03:03:47;11.60;99.90
8988;DHT22;4529;51.360;12.474;2022-09-02T03:08:51;11.60;99.90
8988;DHT22;4529;51.360;12.474;2022-09-02T03:13:54;11.50;99.90
8988;DHT22;4529;51.360;12.474;2022-09-02T03:18:57;11.40;99.90
8988;DHT22;4529;51.360;12.474;2022-09-02T03:24:01;11.40;99.90
8988;DHT22;4529;51.360;12.474;2022-09-02T03:29:04;11.40;99.90
8988;DHT22;4529;51.360;12.474;2022-09-02T03:34:08;11.40;99.90
8988;DHT22;4529;51.360;12.474;2022-09-02T03:39:11;11.30;99.90
8988;DHT22;4529;51.360;12.474;2022-09-02T03:44:15;11.40;99.90
8988;DHT22;4529;51.360;12.474;2022-09-02T03:49:18;11.30;99.90
8988;DHT22;4529;51.360;12.474;2022-09-02T03:54:22;11.20;99.90
8988;DHT22;4529;51.360;12.474;2022-09-02T03:59:25;11.20;99.90
8988;DHT22;4529;51.360;12.474;2022-09-02T04:04:29;11.20;99.90
8988;DHT22;4529;51.360;12.474;2022-09-02T04:09:32;11.30;99.90
8988;DHT22;4529;51.360;12.474;2022-09-02T04:14:36;11.30;99.90
8988;DHT22;4529;51.360;12.474;2022-09-02T04:19:39;11.30;99.90
8988;DHT22;4529;51.360;12.474;2022-09-02T04:24:42;11.30;99.90
8988;DHT22;4529;51.360;12.474;2022-09-02T04:29:46;11.30;99.90
8988;DHT22;4529;51.360;12.474;2022-09-02T04:34:49;11.40;99.90
8988;DHT22;4529;51.360;12.474;2022-09-02T04:39:53;11.40;99.90
8988;DHT22;4529;51.360;12.474;2022-09-02T04:44:56;11.40;99.90
8988;DHT22;4529;51.360;12.474;2022-09-02T04:50:00;11.50;99.90
8988;DHT22;4529;51.360;12.474;2022-09-02T04:55:04;11.60;99.90
8988;DHT22;4529;51.360;12.474;2022-09-02T05:00:08;11.70;99.90
8988;DHT22;4529;51.360;12.474;2022-09-02T05:05:11;11.70;99.90
8988;DHT22;4529;51.360;12.474;2022-09-02T05:10:15;11.80;99.90
8988;DHT22;4529;51.360;12.474;2022-09-02T05:15:19;11.80;99.90
8988;DHT22;4529;51.360;12.474;2022-09-02T05:20:24;11.90;99.90
8988;DHT22;4529;51.360;12.474;2022-09-02T05:25:28;12.10;99.90
8988;DHT22;4529;51.360;12.474;2022-09-02T05:30:32;12.20;99.90
8988;DHT22;4529;51.360;12.474;2022-09-02T05:35:40;12.40;99.90
8988;DHT22;4529;51.360;12.474;2022-09-02T05:40:43;12.50;99.90
8988;DHT22;4529;51.360;12.474;2022-09-02T05:45:47;12.70;99.90
8988;DHT22;4529;51.360;12.474;2022-09-02T05:50:52;12.90;99.90
8988;DHT22;4529;51.360;12.474;2022-09-02T05:55:56;13.00;99.90
8988;DHT22;4529;51.360;12.474;2022-09-02T06:01:05;13.10;99.90
8988;DHT22;4529;51.360;12.474;2022-09-02T06:06:05;13.30;99.90
8988;DHT22;4529;51.360;12.474;2022-09-02T06:11:08;13.30;99.90
8988;DHT22;4529;51.360;12.474;2022-09-02T06:16:15;13.50;99.90
8988;DHT22;4529;51.360;12.474;2022-09-02T06:21:17;13.90;99.90
8988;DHT22;4529;51.360;12.474;2022-09-02T06:26:21;14.20;99.90
8988;DHT22;4529;51.360;12.474;2022-09-02T06:31:24;14.50;99.90
8988;DHT22;4529;51.360;12.474;2022-09-02T06:36:28;14.80;99.90
8988;DHT22;4529;51.360;12.474;2022-09-02T06:41:32;15.10;99.90
8988;DHT22;4529;51.360;12.474;2022-09-02T06:46:38;15.30;99.90
8988;DHT22;4529;51.360;12.474;2022-09-02T06:51:39;15.60;99.90
8988;DHT22;4529;51.360;12.474;2022-09-02T06:56:42;15.70;99.90
8988;DHT22;4529;51.360;12.474;2022-09-02T07:01:45;15.90;99.90
8988;DHT22;4529;51.360;12.474;2022-09-02T07:06:50;16.20;99.90
8988;DHT22;4529;51.360;12.474;2022-09-02T07:11:52;16.30;99.90
8988;DHT22;4529;51.360;12.474;2022-09-02T07:16:55;16.60;99.90
8988;DHT22;4529;51.360;12.474;2022-09-02T07:21:59;16.70;99.90
8988;DHT22;4529;51.360;12.474;2022-09-02T07:27:02;17.10;99.90
8988;DHT22;4529;51.360;12.474;2022-09-02T07:32:06;17.30;99.90
8988;DHT22;4529;51.360;12.474;2022-09-02T07:37:09;17.70;99.90
8988;DHT22;4529;51.360;12.474;2022-09-02T07:42:13;18.00;99.90
8988;DHT22;4529;51.360;12.474;2022-09-02T07:47:16;18.30;99.90
8988;DHT22;4529;51.360;12.474;2022-09-02T07:52:20;18.70;99.90
8988;DHT22;4529;51.360;12.474;2022-09-02T07:57:23;19.00;99.90
8988;DHT22;4529;51.360;12.474;2022-09-02T08:02:26;19.30;99.90
8988;DHT22;4529;51.360;12.474;2022-09-02T08:07:30;19.50;99.90
8988;DHT22;4529;51.360;12.474;2022-09-02T08:12:33;19.70;99.90
8988;DHT22;4529;51.360;12.474;2022-09-02T08:17:37;19.90;99.90
8988;DHT22;4529;51.360;12.474;2022-09-02T08:22:49;20.10;99.90
8988;DHT22;4529;51.360;12.474;2022-09-02T08:27:53;20.20;99.90
8988;DHT22;4529;51.360;12.474;2022-09-02T08:32:56;20.30;99.90
8988;DHT22;4529;51.360;12.474;2022-09-02T08:38:00;20.40;99.90
8988;DHT22;4529;51.360;12.474;2022-09-02T08:43:06;20.60;99.90
8988;DHT22;4529;51.360;12.474;2022-09-02T08:53:36;20.50;99.90
8988;DHT22;4529;51.360;12.474;2022-09-02T08:58:37;20.60;99.90
8988;DHT22;4529;51.360;12.474;2022-09-02T09:04:00;20.80;99.90
8988;DHT22;4529;51.360;12.474;2022-09-02T09:09:03;20.80;99.90
8988;DHT22;4529;51.360;12.474;2022-09-02T09:19:15;21.00;99.90
8988;DHT22;4529;51.360;12.474;2022-09-02T09:24:32;21.20;99.90
8988;DHT22;4529;51.360;12.474;2022-09-02T09:29:32;21.20;99.90
8988;DHT22;4529;51.360;12.474;2022-09-02T09:39:54;21.40;99.90
8988;DHT22;4529;51.360;12.474;2022-09-02T09:44:58;21.30;99.90
8988;DHT22;4529;51.360;12.474;2022-09-02T09:50:14;21.50;99.90
8988;DHT22;4529;51.360;12.474;2022-09-02T09:55:19;21.40;99.90
8988;DHT22;4529;51.360;12.474;2022-09-02T10:00:32;21.70;99.90
8988;DHT22;4529;51.360;12.474;2022-09-02T10:05:38;21.60;99.90
8988;DHT22;4529;51.360;12.474;2022-09-02T10:10:58;21.80;99.90
8988;DHT22;4529;51.360;12.474;2022-09-02T10:21:15;21.60;99.90
8988;DHT22;4529;51.360;12.474;2022-09-02T10:26:30;21.90;99.90
8988;DHT22;4529;51.360;12.474;2022-09-02T10:37:26;22.30;99.90
8988;DHT22;4529;51.360;12.474;2022-09-02T10:53:16;22.50;99.90
8988;DHT22;4529;51.360;12.474;2022-09-02T11:09:08;22.20;99.90
8988;DHT22;4529;51.360;12.474;2022-09-02T11:14:26;22.30;99.90
8988;DHT22;4529;51.360;12.474;2022-09-02T11:20:00;22.10;99.90
8988;DHT22;4529;51.360;12.474;2022-09-02T11:25:19;21.80;99.90
8988;DHT22;4529;51.360;12.474;2022-09-02T11:30:30;22.40;99.90
8988;DHT22;4529;51.360;12.474;2022-09-02T11:35:32;22.40;99.90
8988;DHT22;4529;51.360;12.474;2022-09-02T11:46:36;22.20;99.90
8988;DHT22;4529;51.360;12.474;2022-09-02T11:57:05;22.10;99.90
8988;DHT22;4529;51.360;12.474;2022-09-02T12:02:09;22.20;99.90
8988;DHT22;4529;51.360;12.474;2022-09-02T12:17:44;22.60;99.90
8988;DHT22;4529;51.360;12.474;2022-09-02T12:22:46;22.50;99.90
8988;DHT22;4529;51.360;12.474;2022-09-02T12:27:49;22.60;99.90
8988;DHT22;4529;51.360;12.474;2022-09-02T12:33:09;22.80;99.90
8988;DHT22;4529;51.360;12.474;2022-09-02T12:43:43;22.70;99.90
8988;DHT22;4529;51.360;12.474;2022-09-02T12:48:44;22.50;99.90
8988;DHT22;4529;51.360;12.474;2022-09-02T12:53:48;22.10;99.90
8988;DHT22;4529;51.360;12.474;2022-09-02T12:58:55;22.10;99.90
8988;DHT22;4529;51.360;12.474;2022-09-02T13:09:35;22.70;99.90
8988;DHT22;4529;51.360;12.474;2022-09-02T13:14:52;22.40;99.90
8988;DHT22;4529;51.360;12.474;2022-09-02T13:25:55;22.10;99.90
8988;DHT22;4529;51.360;12.474;2022-09-02T13:31:21;22.10;99.90
8988;DHT22;4529;51.360;12.474;2022-09-02T13:36:43;21.90;99.90
8988;DHT22;4529;51.360;12.474;2022-09-02T13:41:45;21.90;99.90
8988;DHT22;4529;51.360;12.474;2022-09-02T13:47:01;22.00;99.90
8988;DHT22;4529;51.360;12.474;2022-09-02T13:52:06;22.00;99.90
8988;DHT22;4529;51.360;12.474;2022-09-02T13:57:09;22.00;99.90
8988;DHT22;4529;51.360;12.474;2022-09-02T14:02:29;21.70;99.90
8988;DHT22;4529;51.360;12.474;2022-09-02T14:07:52;22.30;99.90
8988;DHT22;4529;51.360;12.474;2022-09-02T14:12:54;22.30;99.90
8988;DHT22;4529;51.360;12.474;2022-09-02T14:18:16;22.40;99.90
8988;DHT22;4529;51.360;12.474;2022-09-02T14:23:19;22.60;99.90
8988;DHT22;4529;51.360;12.474;2022-09-02T14:28:26;22.50;99.90
8988;DHT22;4529;51.360;12.474;2022-09-02T14:43:57;22.10;99.90
8988;DHT22;4529;51.360;12.474;2022-09-02T14:49:09;21.90;99.90
8988;DHT22;4529;51.360;12.474;2022-09-02T14:54:12;21.90;99.90
8988;DHT22;4529;51.360;12.474;2022-09-02T14:59:15;21.90;99.90
8988;DHT22;4529;51.360;12.474;2022-09-02T15:04:19;21.60;99.90
8988;DHT22;4529;51.360;12.474;2022-09-02T15:09:22;21.50;99.90
8988;DHT22;4529;51.360;12.474;2022-09-02T15:14:26;21.40;99.90
8988;DHT22;4529;51.360;12.474;2022-09-02T15:19:29;21.30;99.90
8988;DHT22;4529;51.360;12.474;2022-09-02T15:24:33;21.20;99.90
8988;DHT22;4529;51.360;12.474;2022-09-02T15:29:36;21.20;99.90
8988;DHT22;4529;51.360;12.474;2022-09-02T15:34:40;21.40;99.90
8988;DHT22;4529;51.360;12.474;2022-09-02T15:39:43;21.60;99.90
8988;DHT22;4529;51.360;12.474;2022-09-02T15:44:46;21.70;99.90
8988;DHT22;4529;51.360;12.474;2022-09-02T15:49:50;21.40;99.90
8988;DHT22;4529;51.360;12.474;2022-09-02T15:54:53;21.30;99.90
8988;DHT22;4529;51.360;12.474;2022-09-02T15:59:57;21.10;99.90
8988;DHT22;4529;51.360;12.474;2022-09-02T16:05:00;21.00;99.90
8988;DHT22;4529;51.360;12.474;2022-09-02T16:10:04;21.00;99.90
8988;DHT22;4529;51.360;12.474;2022-09-02T16:15:08;21.10;99.90
8988;DHT22;4529;51.360;12.474;2022-09-02T16:20:12;21.10;99.90
8988;DHT22;4529;51.360;12.474;2022-09-02T16:25:15;21.10;99.90
8988;DHT22;4529;51.360;12.474;2022-09-02T16:30:19;21.00;99.90
8988;DHT22;4529;51.360;12.474;2022-09-02T16:35:22;20.90;99.90
8988;DHT22;4529;51.360;12.474;2022-09-02T16:40:25;20.70;99.90
8988;DHT22;4529;51.360;12.474;2022-09-02T16:45:29;20.60;99.90
8988;DHT22;4529;51.360;12.474;2022-09-02T16:50:32;20.70;99.90
8988;DHT22;4529;51.360;12.474;2022-09-02T16:55:42;20.70;99.90
8988;DHT22;4529;51.360;12.474;2022-09-02T17:00:45;20.70;99.90
8988;DHT22;4529;51.360;12.474;2022-09-02T17:05:49;20.70;99.90
8988;DHT22;4529;51.360;12.474;2022-09-02T17:11:09;20.60;99.90
8988;DHT22;4529;51.360;12.474;2022-09-02T17:16:12;20.60;99.90
8988;DHT22;4529;51.360;12.474;2022-09-02T17:21:34;20.50;99.90
8988;DHT22;4529;51.360;12.474;2022-09-02T17:26:38;20.40;99.90
8988;DHT22;4529;51.360;12.474;2022-09-02T17:31:41;20.30;99.90
8988;DHT22;4529;51.360;12.474;2022-09-02T17:36:44;20.20;99.90
8988;DHT22;4529;51.360;12.474;2022-09-02T17:41:47;20.20;99.90
8988;DHT22;4529;51.360;12.474;2022-09-02T17:46:51;20.00;99.90
8988;DHT22;4529;51.360;12.474;2022-09-02T17:51:54;20.00;99.90
8988;DHT22;4529;51.360;12.474;2022-09-02T18:13:10;19.70;99.90
8988;DHT22;4529;51.360;12.474;2022-09-02T18:18:14;19.60;99.90
8988;DHT22;4529;51.360;12.474;2022-09-02T18:28:57;19.40;99.90
8988;DHT22;4529;51.360;12.474;2022-09-02T18:34:08;19.40;99.90
8988;DHT22;4529;51.360;12.474;2022-09-02T18:49:53;19.10;99.90
8988;DHT22;4529;51.360;12.474;2022-09-02T18:55:11;19.10;99.90
8988;DHT22;4529;51.360;12.474;2022-09-02T19:00:13;19.10;99.90
8988;DHT22;4529;51.360;12.474;2022-09-02T19:05:20;19.00;99.90
8988;DHT22;4529;51.360;12.474;2022-09-02T19:10:22;18.90;99.90
8988;DHT22;4529;51.360;12.474;2022-09-02T19:15:26;18.70;99.90
8988;DHT22;4529;51.360;12.474;2022-09-02T19:20:29;18.60;99.90
8988;DHT22;4529;51.360;12.474;2022-09-02T19:25:32;18.50;99.90
8988;DHT22;4529;51.360;12.474;2022-09-02T19:30:36;18.30;99.90
8988;DHT22;4529;51.360;12.474;2022-09-02T19:35:46;18.10;99.90
8988;DHT22;4529;51.360;12.474;2022-09-02T19:40:50;17.70;99.90
8988;DHT22;4529;51.360;12.474;2022-09-02T19:45:53;17.70;99.90
8988;DHT22;4529;51.360;12.474;2022-09-02T19:50:56;17.50;99.90
8988;DHT22;4529;51.360;12.474;2022-09-02T19:56:00;17.50;99.90
8988;DHT22;4529;51.360;12.474;2022-09-02T20:01:04;17.50;99.90
8988;DHT22;4529;51.360;12.474;2022-09-02T20:06:07;17.40;99.90
8988;DHT22;4529;51.360;12.474;2022-09-02T20:11:11;17.20;99.90
8988;DHT22;4529;51.360;12.474;2022-09-02T20:16:19;17.20;99.90
8988;DHT22;4529;51.360;12.474;2022-09-02T20:21:34;17.20;99.90
8988;DHT22;4529;51.360;12.474;2022-09-02T20:37:34;17.20;99.90
8988;DHT22;4529;51.360;12.474;2022-09-02T20:48:24;17.20;99.90
8988;DHT22;4529;51.360;12.474;2022-09-02T20:54:02;17.20;99.90
8988;DHT22;4529;51.360;12.474;2022-09-02T20:59:42;17.20;99.90
8988;DHT22;4529;51.360;12.474;2022-09-02T21:04:48;17.20;99.90
8988;DHT22;4529;51.360;12.474;2022-09-02T21:20:48;17.30;99.90
8988;DHT22;4529;51.360;12.474;2022-09-02T21:26:11;17.30;99.90
8988;DHT22;4529;51.360;12.474;2022-09-02T21:36:18;17.30;99.90
8988;DHT22;4529;51.360;12.474;2022-09-02T21:41:40;17.30;99.90
8988;DHT22;4529;51.360;12.474;2022-09-02T21:46:50;17.30;99.90
8988;DHT22;4529;51.360;12.474;2022-09-02T21:52:15;17.30;99.90
8988;DHT22;4529;51.360;12.474;2022-09-02T21:57:46;17.30;99.90
8988;DHT22;4529;51.360;12.474;2022-09-02T22:03:16;17.30;99.90
8988;DHT22;4529;51.360;12.474;2022-09-02T22:08:58;17.30;99.90
8988;DHT22;4529;51.360;12.474;2022-09-02T22:14:01;17.30;99.90
8988;DHT22;4529;51.360;12.474;2022-09-02T22:19:03;17.20;99.90
8988;DHT22;4529;51.360;12.474;2022-09-02T22:24:07;17.20;99.90
8988;DHT22;4529;51.360;12.474;2022-09-02T22:34:20;17.10;99.90
8988;DHT22;4529;51.360;12.474;2022-09-02T22:39:26;17.10;99.90
8988;DHT22;4529;51.360;12.474;2022-09-02T22:44:41;17.10;99.90
8988;DHT22;4529;51.360;12.474;2022-09-02T22:49:51;17.10;99.90
8988;DHT22;4529;51.360;12.474;2022-09-02T22:54:54;17.00;99.90
8988;DHT22;4529;51.360;12.474;2022-09-02T23:00:08;17.00;99.90
8988;DHT22;4529;51.360;12.474;2022-09-02T23:05:41;16.90;99.90
8988;DHT22;4529;51.360;12.474;2022-09-02T23:11:04;16.90;99.90
8988;DHT22;4529;51.360;12.474;2022-09-02T23:21:18;16.80;99.90
8988;DHT22;4529;51.360;12.474;2022-09-02T23:26:31;16.70;99.90
8988;DHT22;4529;51.360;12.474;2022-09-02T23:32:09;16.50;99.90
8988;DHT22;4529;51.360;12.474;2022-09-02T23:42:22;16.50;99.90
8988;DHT22;4529;51.360;12.474;2022-09-02T23:53:08;16.30;99.90
8988;DHT22;4529;51.360;12.474;2022-09-02T23:58:51;16.30;99.90
